createdAt,value
2023-05-12T00:02:17.827Z,11.42
2023-05-12T00:04:46.527Z,11.36
2023-05-12T00:07:15.610Z,11.30
2023-05-12T00:09:43.835Z,11.25
2023-05-12T00:12:12.605Z,11.24
2023-05-12T00:14:42.379Z,11.20
2023-05-12T00:17:10.508Z,11.16
2023-05-12T00:19:39.802Z,11.13
2023-05-12T00:22:08.055Z,11.08
2023-05-12T00:24:36.312Z,11.06
2023-05-12T00:27:04.856Z,11.00
2023-05-12T00:29:34.412Z,10.93
2023-05-12T00:32:07.146Z,10.87
2023-05-12T00:34:35.313Z,10.80
2023-05-12T00:37:03.820Z,10.77
2023-05-12T00:39:31.953Z,10.77
2023-05-12T00:42:01.071Z,10.75
2023-05-12T00:44:29.294Z,10.68
2023-05-12T00:46:57.934Z,10.69
2023-05-12T00:49:28.541Z,10.66
2023-05-12T00:51:57.064Z,10.60
2023-05-12T00:54:26.575Z,10.58
2023-05-12T00:56:54.777Z,10.53
2023-05-12T00:59:23.320Z,10.51
2023-05-12T01:01:51.662Z,10.47
2023-05-12T01:04:19.982Z,10.42
2023-05-12T01:06:57.139Z,10.38
2023-05-12T01:09:26.329Z,10.31
2023-05-12T01:11:54.808Z,10.29
2023-05-12T01:14:31.885Z,10.20
2023-05-12T01:17:03.682Z,10.19
2023-05-12T01:19:40.921Z,10.09
2023-05-12T01:22:12.375Z,10.09
2023-05-12T01:24:47.656Z,10.02
2023-05-12T01:27:18.972Z,9.98
2023-05-12T01:29:48.351Z,9.92
2023-05-12T01:32:34.374Z,9.91
2023-05-12T01:35:03.155Z,9.85
2023-05-12T01:37:31.317Z,9.78
2023-05-12T01:39:59.389Z,9.69
2023-05-12T01:42:29.028Z,9.62
2023-05-12T01:44:57.216Z,9.56
2023-05-12T01:47:25.314Z,9.52
2023-05-12T01:49:54.516Z,9.44
2023-05-12T01:52:23.235Z,9.39
2023-05-12T01:54:51.569Z,9.34
2023-05-12T01:57:19.902Z,9.36
2023-05-12T01:59:49.840Z,9.36
2023-05-12T02:02:18.033Z,9.34
2023-05-12T02:04:46.227Z,9.39
2023-05-12T02:07:16.600Z,9.35
2023-05-12T02:09:44.987Z,9.26
2023-05-12T02:12:13.549Z,9.18
2023-05-12T02:14:41.749Z,9.06
2023-05-12T02:17:15.049Z,9.03
2023-05-12T02:19:43.210Z,8.99
2023-05-12T02:22:11.846Z,8.94
2023-05-12T02:24:39.962Z,8.88
2023-05-12T02:27:08.157Z,8.85
2023-05-12T02:29:36.428Z,8.81
2023-05-12T02:32:04.892Z,8.79
2023-05-12T02:34:34.929Z,8.80
2023-05-12T02:37:03.089Z,8.81
2023-05-12T02:39:31.349Z,8.79
2023-05-12T02:41:59.546Z,8.73
2023-05-12T02:44:27.881Z,8.77
2023-05-12T02:46:58.085Z,8.78
2023-05-12T02:49:26.384Z,8.74
2023-05-12T02:51:56.839Z,8.78
2023-05-12T02:54:25.120Z,8.79
2023-05-12T02:56:53.316Z,8.85
2023-05-12T02:59:21.605Z,8.90
2023-05-12T03:01:50.095Z,8.94
2023-05-12T03:04:18.386Z,9.04
2023-05-12T03:06:48.176Z,9.06
2023-05-12T03:09:17.987Z,9.13
2023-05-12T03:11:46.296Z,9.22
2023-05-12T03:14:14.507Z,9.33
2023-05-12T03:16:48.996Z,9.48
2023-05-12T03:19:17.315Z,9.64
2023-05-12T03:21:45.553Z,9.82
2023-05-12T03:24:13.906Z,9.97
2023-05-12T03:26:43.587Z,10.12
2023-05-12T03:29:11.803Z,10.27
2023-05-12T03:31:40.129Z,10.38
2023-05-12T03:34:08.877Z,10.44
2023-05-12T03:36:37.557Z,10.50
2023-05-12T03:39:08.802Z,10.61
2023-05-12T03:41:37.291Z,10.61
2023-05-12T03:44:08.707Z,10.65
2023-05-12T03:46:37.162Z,10.71
2023-05-12T03:49:06.030Z,10.74
2023-05-12T03:51:34.245Z,10.83
2023-05-12T03:54:02.804Z,10.89
2023-05-12T03:56:30.954Z,10.94
2023-05-12T03:58:59.307Z,10.96
2023-05-12T04:01:29.253Z,11.01
2023-05-12T04:03:57.680Z,11.04
2023-05-12T04:06:27.139Z,11.14
2023-05-12T04:08:55.291Z,11.16
2023-05-12T04:11:23.715Z,11.20
2023-05-12T04:13:51.867Z,11.22
2023-05-12T04:16:21.190Z,11.28
2023-05-12T04:18:51.466Z,11.32
2023-05-12T04:21:19.813Z,11.41
2023-05-12T04:23:48.456Z,11.50
2023-05-12T04:26:22.363Z,11.60
2023-05-12T04:28:50.643Z,11.69
2023-05-12T04:31:19.042Z,11.77
2023-05-12T04:33:48.518Z,11.88
2023-05-12T04:36:18.195Z,11.95
2023-05-12T04:38:46.733Z,12.03
2023-05-12T04:41:22.746Z,12.13
2023-05-12T04:46:22.574Z,12.29
2023-05-12T04:48:50.807Z,12.38
2023-05-12T04:51:20.879Z,12.47
2023-05-12T04:53:49.134Z,12.57
2023-05-12T04:56:24.024Z,12.67
2023-05-12T04:58:52.152Z,12.79
2023-05-12T05:01:20.941Z,12.88
2023-05-12T05:03:49.895Z,12.98
2023-05-12T05:06:20.292Z,13.03
2023-05-12T05:08:48.646Z,13.17
2023-05-12T05:11:23.997Z,13.24
2023-05-12T05:13:52.252Z,13.37
2023-05-12T05:16:20.676Z,13.46
2023-05-12T05:18:48.991Z,13.54
2023-05-12T05:21:17.245Z,13.63
2023-05-12T05:23:46.811Z,13.77
2023-05-12T05:26:15.081Z,13.87
2023-05-12T05:28:43.221Z,13.99
2023-05-12T05:31:16.707Z,14.10
2023-05-12T05:33:45.968Z,14.18
2023-05-12T05:36:14.668Z,14.27
2023-05-12T05:38:43.028Z,14.35
2023-05-12T05:41:12.784Z,14.46
2023-05-12T05:43:40.956Z,14.58
2023-05-12T05:46:09.594Z,14.70
2023-05-12T05:48:37.849Z,14.78
2023-05-12T05:51:13.323Z,14.90
2023-05-12T05:53:41.488Z,15.04
2023-05-12T05:56:09.688Z,15.20
2023-05-12T05:58:39.440Z,15.32
2023-05-12T06:01:08.081Z,15.45
2023-05-12T06:03:43.549Z,15.58
2023-05-12T06:06:13.062Z,15.73
2023-05-12T06:08:41.503Z,15.85
2023-05-12T06:11:10.084Z,15.97
2023-05-12T06:13:39.894Z,16.12
2023-05-12T06:16:08.238Z,16.26
2023-05-12T06:18:38.340Z,16.42
2023-05-12T06:21:07.299Z,16.59
2023-05-12T06:23:35.562Z,16.74
2023-05-12T06:26:04.213Z,16.86
2023-05-12T06:28:32.383Z,17.01
2023-05-12T06:31:02.395Z,17.15
2023-05-12T06:33:30.639Z,17.26
2023-05-12T06:35:59.479Z,17.38
2023-05-12T06:38:27.744Z,17.50
2023-05-12T06:40:56.330Z,17.63
2023-05-12T06:43:25.069Z,17.75
2023-05-12T06:45:53.305Z,17.90
2023-05-12T06:48:23.228Z,18.03
2023-05-12T06:50:51.549Z,18.14
2023-05-12T06:53:19.815Z,18.31
2023-05-12T06:55:48.660Z,18.41
2023-05-12T06:58:16.830Z,18.50
2023-05-12T07:00:49.016Z,18.64
2023-05-12T07:03:17.783Z,18.71
2023-05-12T07:05:47.899Z,18.79
2023-05-12T07:08:16.235Z,18.88
2023-05-12T07:10:44.463Z,18.98
2023-05-12T07:13:13.072Z,19.11
2023-05-12T07:15:41.882Z,19.20
2023-05-12T07:18:10.180Z,19.25
2023-05-12T07:20:39.075Z,19.31
2023-05-12T07:23:09.360Z,19.35
2023-05-12T07:25:37.990Z,19.40
2023-05-12T07:28:06.801Z,19.44
2023-05-12T07:30:34.982Z,19.50
2023-05-12T07:33:03.240Z,19.55
2023-05-12T07:35:31.776Z,19.62
2023-05-12T07:37:59.924Z,19.67
2023-05-12T07:40:30.891Z,19.78
2023-05-12T07:42:59.651Z,19.85
2023-05-12T07:45:28.457Z,19.91
2023-05-12T07:48:02.978Z,19.98
2023-05-12T07:50:31.350Z,20.04
2023-05-12T07:52:59.570Z,20.08
2023-05-12T07:55:39.287Z,20.17
2023-05-12T07:58:07.461Z,20.22
2023-05-12T08:00:35.846Z,20.23
2023-05-12T08:03:04.593Z,20.26
2023-05-12T08:05:32.967Z,20.33
2023-05-12T08:08:03.023Z,20.36
2023-05-12T08:10:33.202Z,20.47
2023-05-12T08:13:01.415Z,20.57
2023-05-12T08:15:29.712Z,20.70
2023-05-12T08:17:58.204Z,20.79
2023-05-12T08:20:26.856Z,20.84
2023-05-12T08:22:55.028Z,20.86
2023-05-12T08:25:23.707Z,20.88
2023-05-12T08:27:53.286Z,20.94
2023-05-12T08:30:21.865Z,20.97
2023-05-12T08:32:50.209Z,21.07
2023-05-12T08:35:19.889Z,21.12
2023-05-12T08:37:48.729Z,21.20
2023-05-12T08:40:21.906Z,21.29
2023-05-12T08:43:02.052Z,21.43
2023-05-12T08:45:30.969Z,21.47
2023-05-12T08:48:01.196Z,21.51
2023-05-12T08:50:32.323Z,21.57
2023-05-12T08:53:01.198Z,21.61
2023-05-12T08:55:33.519Z,21.64
2023-05-12T08:58:04.846Z,21.73
2023-05-12T09:00:36.160Z,21.75
2023-05-12T09:03:07.492Z,21.78
2023-05-12T09:05:45.486Z,21.79
2023-05-12T09:08:15.572Z,21.86
2023-05-12T09:10:45.257Z,21.88
2023-05-12T09:14:05.808Z,22.00
2023-05-12T09:16:13.268Z,22.11
2023-05-12T09:18:49.453Z,22.12
2023-05-12T09:21:17.823Z,22.16
2023-05-12T09:23:57.082Z,22.19
2023-05-12T09:26:27.102Z,22.21
2023-05-12T09:29:05.005Z,22.22
2023-05-12T09:31:33.713Z,22.22
2023-05-12T09:34:02.472Z,22.33
2023-05-12T09:36:56.297Z,22.45
2023-05-12T09:39:24.570Z,22.44
2023-05-12T09:41:53.185Z,22.46
2023-05-12T09:44:42.676Z,22.53
2023-05-12T09:47:11.383Z,22.63
2023-05-12T09:49:39.962Z,22.68
2023-05-12T09:52:08.171Z,22.74
2023-05-12T09:54:36.564Z,22.78
2023-05-12T09:57:06.002Z,22.82
2023-05-12T09:59:39.337Z,22.83
2023-05-12T10:02:11.255Z,22.85
2023-05-12T10:04:45.817Z,22.87
2023-05-12T10:07:18.081Z,22.83
2023-05-12T10:09:48.517Z,22.85
2023-05-12T10:12:18.546Z,22.79
2023-05-12T10:14:49.471Z,22.84
2023-05-12T10:17:20.044Z,22.87
2023-05-12T10:19:49.483Z,22.87
2023-05-12T10:22:21.211Z,22.95
2023-05-12T10:24:50.453Z,22.98
2023-05-12T10:27:20.733Z,23.00
2023-05-12T10:29:53.493Z,22.94
2023-05-12T10:32:42.077Z,22.92
2023-05-12T10:35:11.532Z,22.93
2023-05-12T10:37:41.060Z,23.04
2023-05-12T10:40:11.187Z,23.03
2023-05-12T10:42:43.225Z,23.01
2023-05-12T10:45:22.859Z,23.09
2023-05-12T10:47:52.192Z,23.13
2023-05-12T10:50:28.367Z,23.19
2023-05-12T10:53:02.989Z,23.30
2023-05-12T10:55:36.672Z,23.39
2023-05-12T10:58:12.252Z,23.41
2023-05-12T11:00:51.952Z,23.38
2023-05-12T11:03:48.596Z,23.40
2023-05-12T11:06:21.370Z,23.40
2023-05-12T11:08:50.663Z,23.45
2023-05-12T11:11:20.219Z,23.49
2023-05-12T11:13:48.602Z,23.49
2023-05-12T11:16:18.253Z,23.57
2023-05-12T11:18:46.648Z,23.63
2023-05-12T11:21:15.702Z,23.64
2023-05-12T11:23:43.953Z,23.68
2023-05-12T11:26:18.761Z,23.74
2023-05-12T11:28:47.318Z,23.82
2023-05-12T11:31:21.039Z,23.85
2023-05-12T11:33:58.518Z,23.94
2023-05-12T11:36:38.320Z,23.93
2023-05-12T11:39:08.183Z,23.83
2023-05-12T11:41:37.036Z,23.82
2023-05-12T11:44:15.007Z,23.91
2023-05-12T11:46:55.516Z,23.93
2023-05-12T11:49:24.321Z,23.92
2023-05-12T11:51:54.453Z,23.99
2023-05-12T11:54:23.413Z,24.04
2023-05-12T11:56:52.719Z,24.14
2023-05-12T11:59:32.042Z,24.23
2023-05-12T12:02:02.899Z,24.32
2023-05-12T12:04:40.739Z,24.36
2023-05-12T12:07:10.849Z,24.36
2023-05-12T12:09:40.895Z,24.28
2023-05-12T12:12:12.180Z,24.25
2023-05-12T12:14:41.682Z,24.25
2023-05-12T12:17:11.228Z,24.21
2023-05-12T12:19:39.716Z,24.24
2023-05-12T12:22:07.958Z,24.23
2023-05-12T12:24:36.183Z,24.29
2023-05-12T12:27:05.699Z,24.39
2023-05-12T12:29:43.267Z,24.46
2023-05-12T12:32:12.799Z,24.53
2023-05-12T12:34:41.521Z,24.57
2023-05-12T12:37:09.687Z,24.64
2023-05-12T12:39:38.220Z,24.67
2023-05-12T12:42:06.968Z,24.76
2023-05-12T12:44:35.181Z,24.73
2023-05-12T12:47:03.693Z,24.67
2023-05-12T12:49:33.444Z,24.54
2023-05-12T12:52:02.180Z,24.57
2023-05-12T12:54:30.354Z,24.61
2023-05-12T12:56:58.528Z,24.56
2023-05-12T12:59:30.182Z,24.45
2023-05-12T13:02:00.216Z,24.48
2023-05-12T13:04:29.064Z,24.60
2023-05-12T13:07:00.994Z,24.60
2023-05-12T13:09:29.294Z,24.66
2023-05-12T13:11:58.220Z,24.68
2023-05-12T13:14:27.031Z,24.70
2023-05-12T13:16:55.207Z,24.73
2023-05-12T13:19:23.365Z,24.77
2023-05-12T13:21:51.585Z,24.82
2023-05-12T13:24:36.437Z,24.88
2023-05-12T13:27:08.433Z,24.91
2023-05-12T13:29:37.185Z,24.93
2023-05-12T13:32:05.536Z,24.95
2023-05-12T13:34:33.680Z,24.96
2023-05-12T13:37:02.044Z,25.05
2023-05-12T13:39:30.222Z,25.00
2023-05-12T13:41:59.928Z,24.97
2023-05-12T13:44:37.993Z,25.00
2023-05-12T13:47:10.044Z,24.98
2023-05-12T13:49:38.477Z,25.06
2023-05-12T13:52:07.376Z,25.12
2023-05-12T13:54:35.696Z,25.12
2023-05-12T13:57:04.682Z,25.15
2023-05-12T13:59:33.079Z,25.12
2023-05-12T14:02:03.059Z,25.08
2023-05-12T14:04:31.392Z,25.12
2023-05-12T14:06:59.961Z,25.14
2023-05-12T14:09:28.611Z,25.14
2023-05-12T14:11:58.102Z,25.16
2023-05-12T14:14:26.339Z,25.23
2023-05-12T14:16:55.226Z,25.22
2023-05-12T14:19:24.981Z,25.28
2023-05-12T14:21:53.838Z,25.32
2023-05-12T14:24:22.213Z,25.34
2023-05-12T14:27:00.074Z,25.38
2023-05-12T14:29:28.428Z,25.21
2023-05-12T14:31:56.804Z,25.00
2023-05-12T14:34:26.478Z,24.87
2023-05-12T14:36:54.845Z,24.80
2023-05-12T14:39:23.032Z,24.78
2023-05-12T14:42:00.876Z,24.77
2023-05-12T14:44:30.797Z,24.78
2023-05-12T14:46:59.030Z,24.81
2023-05-12T14:49:28.687Z,24.89
2023-05-12T14:51:56.758Z,24.92
2023-05-12T14:54:25.989Z,24.99
2023-05-12T14:56:54.893Z,25.03
2023-05-12T14:59:23.587Z,25.07
2023-05-12T15:01:52.625Z,25.06
2023-05-12T15:04:20.924Z,25.08
2023-05-12T15:06:50.984Z,25.05
2023-05-12T15:09:19.329Z,25.07
2023-05-12T15:11:49.748Z,25.07
2023-05-12T15:14:17.954Z,25.07
2023-05-12T15:16:46.240Z,25.00
2023-05-12T15:19:15.574Z,24.95
2023-05-12T15:21:43.862Z,24.91
2023-05-12T15:24:13.340Z,25.00
2023-05-12T15:26:45.265Z,25.39
2023-05-12T15:29:13.327Z,26.09
2023-05-12T15:31:41.624Z,27.18
2023-05-12T15:34:10.192Z,28.45
2023-05-12T15:36:55.479Z,29.65
2023-05-12T15:39:25.019Z,30.72
2023-05-12T15:41:53.250Z,31.66
2023-05-12T15:44:23.191Z,32.34
2023-05-12T15:46:51.586Z,32.92
2023-05-12T15:49:19.866Z,33.31
2023-05-12T15:51:48.162Z,33.45
2023-05-12T15:54:20.414Z,33.71
2023-05-12T15:56:51.168Z,33.87
2023-05-12T15:59:19.921Z,34.14
2023-05-12T16:01:49.020Z,34.51
2023-05-12T16:04:17.316Z,34.68
2023-05-12T16:06:46.007Z,34.68
2023-05-12T16:09:14.332Z,34.54
2023-05-12T16:11:42.760Z,34.61
2023-05-12T16:14:15.732Z,34.60
2023-05-12T16:16:48.357Z,34.58
2023-05-12T16:19:16.764Z,34.31
2023-05-12T16:21:45.535Z,34.42
2023-05-12T16:24:14.174Z,34.50
2023-05-12T16:26:42.550Z,34.49
2023-05-12T16:29:11.087Z,34.28
2023-05-12T16:31:40.896Z,34.09
2023-05-12T16:34:09.529Z,33.85
2023-05-12T16:36:37.712Z,33.76
2023-05-12T16:39:14.457Z,33.77
2023-05-12T16:41:42.639Z,33.68
2023-05-12T16:44:11.950Z,33.54
2023-05-12T16:46:43.278Z,33.34
2023-05-12T16:49:11.991Z,33.33
2023-05-12T16:51:40.184Z,33.37
2023-05-12T16:54:14.953Z,33.49
2023-05-12T16:56:43.414Z,33.40
2023-05-12T16:59:12.013Z,33.30
2023-05-12T17:01:42.863Z,32.88
2023-05-12T17:04:12.461Z,32.41
2023-05-12T17:06:40.896Z,31.91
2023-05-12T17:09:19.180Z,31.51
2023-05-12T17:11:47.787Z,30.74
2023-05-12T17:14:17.811Z,30.42
2023-05-12T17:16:49.179Z,30.39
2023-05-12T17:19:17.556Z,30.13
2023-05-12T17:21:45.872Z,29.94
2023-05-12T17:24:17.815Z,29.91
2023-05-12T17:26:46.161Z,30.17
2023-05-12T17:29:17.112Z,30.34
2023-05-12T17:31:45.818Z,30.27
2023-05-12T17:34:15.530Z,30.20
2023-05-12T17:36:43.825Z,30.21
2023-05-12T17:39:15.863Z,30.12
2023-05-12T17:41:44.839Z,30.13
2023-05-12T17:44:14.882Z,30.11
2023-05-12T17:46:43.651Z,30.17
2023-05-12T17:49:12.093Z,30.11
2023-05-12T17:51:43.087Z,30.06
2023-05-12T17:54:11.396Z,30.02
2023-05-12T17:56:39.520Z,29.82
2023-05-12T17:59:10.876Z,29.66
2023-05-12T18:01:39.207Z,29.63
2023-05-12T18:04:07.537Z,29.44
2023-05-12T18:06:35.705Z,29.35
2023-05-12T18:09:05.576Z,29.21
2023-05-12T18:11:34.389Z,29.03
2023-05-12T18:14:06.031Z,28.83
2023-05-12T18:16:34.825Z,28.60
2023-05-12T18:19:04.006Z,28.36
2023-05-12T18:21:32.780Z,28.09
2023-05-12T18:24:00.966Z,27.34
2023-05-12T18:26:31.246Z,26.61
2023-05-12T18:28:59.554Z,26.00
2023-05-12T18:31:27.924Z,25.54
2023-05-12T18:33:59.573Z,25.14
2023-05-12T18:36:28.801Z,24.82
2023-05-12T18:38:57.105Z,24.74
2023-05-12T18:41:25.312Z,24.62
2023-05-12T18:43:55.376Z,24.37
2023-05-12T18:46:23.657Z,23.97
2023-05-12T18:48:51.928Z,23.55
2023-05-12T18:51:21.181Z,23.14
2023-05-12T18:53:52.128Z,22.72
2023-05-12T18:56:20.399Z,22.31
2023-05-12T18:58:48.796Z,21.90
2023-05-12T19:01:18.625Z,21.53
2023-05-12T19:03:47.031Z,21.23
2023-05-12T19:06:18.581Z,20.95
2023-05-12T19:08:46.958Z,20.63
2023-05-12T19:11:15.185Z,20.38
2023-05-12T19:13:45.406Z,20.19
2023-05-12T19:16:13.730Z,19.99
2023-05-12T19:18:44.159Z,19.82
2023-05-12T19:21:12.889Z,19.65
2023-05-12T19:23:41.040Z,19.52
2023-05-12T19:26:10.128Z,19.35
2023-05-12T19:28:38.568Z,19.18
2023-05-12T19:31:07.099Z,19.02
2023-05-12T19:33:35.551Z,18.86
2023-05-12T19:36:06.720Z,18.69
2023-05-12T19:38:35.413Z,18.58
2023-05-12T19:41:03.590Z,18.45
2023-05-12T19:43:31.776Z,18.35
2023-05-12T19:46:00.633Z,18.22
2023-05-12T19:48:28.948Z,18.13
2023-05-12T19:50:57.100Z,18.02
2023-05-12T19:53:26.867Z,17.91
2023-05-12T19:55:55.364Z,17.79
2023-05-12T19:58:23.569Z,17.68
2023-05-12T20:00:51.677Z,17.58
2023-05-12T20:03:20.051Z,17.49
2023-05-12T20:05:48.720Z,17.41
2023-05-12T20:08:17.544Z,17.35
2023-05-12T20:10:47.338Z,17.26
2023-05-12T20:13:16.378Z,17.18
2023-05-12T20:15:44.516Z,17.10
2023-05-12T20:18:14.826Z,17.01
2023-05-12T20:20:43.459Z,16.94
2023-05-12T20:23:11.993Z,16.89
2023-05-12T20:25:40.062Z,16.81
2023-05-12T20:28:11.883Z,16.74
2023-05-12T20:30:40.174Z,16.69
2023-05-12T20:33:08.935Z,16.63
2023-05-12T20:35:37.174Z,16.59
2023-05-12T20:38:05.391Z,16.48
2023-05-12T20:40:34.786Z,16.42
2023-05-12T20:43:03.818Z,16.36
2023-05-12T20:45:34.122Z,16.30
2023-05-12T20:48:02.504Z,16.23
2023-05-12T20:50:32.732Z,16.15
2023-05-12T20:53:01.352Z,16.07
2023-05-12T20:55:30.610Z,16.00
2023-05-12T20:57:58.688Z,15.94
2023-05-12T21:00:37.953Z,15.84
2023-05-12T21:03:06.830Z,15.77
2023-05-12T21:05:35.499Z,15.70
2023-05-12T21:08:03.729Z,15.67
2023-05-12T21:10:32.867Z,15.61
2023-05-12T21:13:01.138Z,15.56
2023-05-12T21:15:36.904Z,15.51
2023-05-12T21:18:07.157Z,15.46
2023-05-12T21:20:35.507Z,15.42
2023-05-12T21:23:04.036Z,15.40
2023-05-12T21:25:32.143Z,15.39
2023-05-12T21:28:00.630Z,15.38
2023-05-12T21:30:41.929Z,15.36
2023-05-12T21:33:11.509Z,15.32
2023-05-12T21:35:39.734Z,15.31
2023-05-12T21:38:08.622Z,15.27
2023-05-12T21:40:37.178Z,15.21
2023-05-12T21:43:06.721Z,15.16
2023-05-12T21:45:35.165Z,15.12
2023-05-12T21:48:03.231Z,15.07
2023-05-12T21:50:33.611Z,15.02
2023-05-12T21:53:02.119Z,14.95
2023-05-12T21:55:30.416Z,14.89
2023-05-12T21:57:58.778Z,14.82
2023-05-12T22:00:27.591Z,14.79
2023-05-12T22:02:55.958Z,14.73
2023-05-12T22:05:24.958Z,14.68
2023-05-12T22:07:55.805Z,14.64
2023-05-12T22:10:24.026Z,14.58
2023-05-12T22:12:52.264Z,14.51
2023-05-12T22:15:37.725Z,14.47
2023-05-12T22:18:05.923Z,14.41
2023-05-12T22:20:34.602Z,14.38
2023-05-12T22:23:04.371Z,14.35
2023-05-12T22:25:32.662Z,14.32
2023-05-12T22:28:00.764Z,14.28
2023-05-12T22:30:37.503Z,14.22
2023-05-12T22:33:05.925Z,14.19
2023-05-12T22:35:34.088Z,14.15
2023-05-12T22:38:03.699Z,14.13
2023-05-12T22:40:32.960Z,14.06
2023-05-12T22:43:02.151Z,14.01
2023-05-12T22:45:30.363Z,13.98
2023-05-12T22:47:58.476Z,13.91
2023-05-12T22:50:39.017Z,13.85
2023-05-12T22:53:08.602Z,13.81
2023-05-12T22:55:37.088Z,13.77
2023-05-12T22:58:05.193Z,13.72
2023-05-12T23:00:33.370Z,13.68
2023-05-12T23:03:03.587Z,13.63
2023-05-12T23:05:32.083Z,13.61
2023-05-12T23:08:00.471Z,13.57
2023-05-12T23:10:30.312Z,13.55
2023-05-12T23:12:58.412Z,13.52
2023-05-12T23:15:26.868Z,13.50
2023-05-12T23:17:55.000Z,13.48
2023-05-12T23:20:23.460Z,13.46
2023-05-12T23:22:51.860Z,13.41
2023-05-12T23:25:20.070Z,13.40
2023-05-12T23:27:49.796Z,13.36
2023-05-12T23:30:19.199Z,13.33
2023-05-12T23:32:50.374Z,13.31
2023-05-12T23:35:19.137Z,13.27
2023-05-12T23:37:47.308Z,13.25
2023-05-12T23:40:15.622Z,13.23
2023-05-12T23:42:45.231Z,13.20
2023-05-12T23:45:16.173Z,13.19
2023-05-12T23:47:44.653Z,13.16
2023-05-12T23:50:13.139Z,13.14
2023-05-12T23:52:41.237Z,13.11
2023-05-12T23:55:11.684Z,13.07
2023-05-12T23:57:39.734Z,13.04
